| time (UTC) | temp C | wind direction | speed KPH | gust KPH | rain 1hr cm | rain 24hr cm | rain mn cm | humidity % | barometer mb |
| 20260506104555 | 12 | 356 | 0.0 | 1.6 | 0.00 | 0.03 | 0.00 | 79 | 1017.8 |
| 20260506103053 | 12 | 341 | 0.0 | 1.6 | 0.00 | 0.03 | 0.00 | 79 | 1017.7 |
| 20260506101549 | 11 | 316 | 0.0 | 0.0 | 0.00 | 0.03 | 0.00 | 79 | 1017.6 |
| 20260506094543 | 12 | 316 | 0.0 | 1.6 | 0.00 | 0.05 | 0.00 | 78 | 1017.7 |
| 20260506093042 | 12 | 323 | 0.0 | 3.2 | 0.00 | 0.05 | 0.00 | 78 | 1017.7 |
| 20260506091541 | 12 | 65 | 0.0 | 0.0 | 0.00 | 0.05 | 0.00 | 77 | 1017.5 |
| 20260506090039 | 12 | 337 | 0.0 | 1.6 | 0.00 | 0.05 | 0.00 | 77 | 1017.5 |
| 20260506084541 | 12 | 338 | 0.0 | 1.6 | 0.00 | 0.10 | 0.00 | 77 | 1017.6 |
| 20260506083038 | 12 | 23 | 0.0 | 1.6 | 0.00 | 0.10 | 0.00 | 77 | 1017.6 |
| 20260506081539 | 12 | 88 | 0.0 | 1.6 | 0.00 | 0.10 | 0.00 | 77 | 1017.6 |
| 20260506073032 | 12 | 10 | 0.0 | 0.0 | 0.00 | 0.18 | 0.00 | 77 | 1017.4 |
| 20260506071531 | 12 | 22 | 0.0 | 3.2 | 0.00 | 0.18 | 0.00 | 78 | 1017.3 |
| 20260506061524 | 13 | 39 | 0.0 | 1.6 | 0.00 | 0.20 | 0.18 | 77 | 1016.9 |
| 20260506044527 | 13 | 18 | 0.0 | 1.6 | 0.00 | 0.30 | 0.18 | 77 | 1016.3 |
| 20260506043017 | 12 | 30 | 0.0 | 1.6 | 0.00 | 0.30 | 0.18 | 77 | 1016.3 |
| 20260506041516 | 13 | 320 | 0.0 | 3.2 | 0.00 | 0.30 | 0.18 | 77 | 1016.2 |
| 20260506040012 | 13 | 260 | 0.0 | 3.2 | 0.00 | 0.30 | 0.18 | 77 | 1015.8 |
| 20260506034511 | 13 | 58 | 0.0 | 3.2 | 0.00 | 0.30 | 0.18 | 76 | 1015.6 |
| 20260506033010 | 13 | 5 | 0.0 | 6.4 | 0.00 | 0.30 | 0.18 | 76 | 1015.5 |
| 20260506031516 | 13 | 54 | 0.0 | 3.2 | 0.00 | 0.30 | 0.18 | 75 | 1015.3 |
| 20260506030019 | 13 | 273 | 0.0 | 6.4 | 0.00 | 0.30 | 0.18 | 75 | 1015.0 |
| 20260506024515 | 13 | 91 | 1.6 | 4.8 | 0.00 | 0.30 | 0.18 | 75 | 1015.0 |
| 20260506023004 | 14 | 191 | 0.0 | 8.0 | 0.00 | 0.30 | 0.18 | 75 | 1014.9 |
| 20260506021504 | 14 | 4 | 3.2 | 16.1 | 0.00 | 0.30 | 0.18 | 74 | 1014.7 |
| 20260506020004 | 14 | 13 | 3.2 | 9.7 | 0.00 | 0.30 | 0.18 | 74 | 1014.5 |
| 20260506014502 | 15 | 8 | 1.6 | 8.0 | 0.00 | 0.30 | 0.18 | 72 | 1014.6 |
| 20260506013002 | 15 | 25 | 1.6 | 9.7 | 0.00 | 0.30 | 0.18 | 71 | 1014.6 |
| 20260506011501 | 16 | 70 | 1.6 | 8.0 | 0.00 | 0.30 | 0.18 | 69 | 1014.7 |
| 20260506010106 | 17 | 218 | 3.2 | 6.4 | 0.00 | 0.30 | 0.18 | 66 | 1014.5 |
| 20260506004600 | 17 | 82 | 0.0 | 6.4 | 0.00 | 0.30 | 0.18 | 66 | 1014.5 |
| 20260506003059 | 17 | 328 | 1.6 | 8.0 | 0.00 | 0.30 | 0.18 | 68 | 1014.3 |
| 20260506001602 | 17 | 295 | 3.2 | 11.3 | 0.00 | 0.30 | 0.18 | 68 | 1014.2 |
| 20260506000104 | 16 | 1 | 3.2 | 0.0 | 0.00 | 0.00 | 0.18 | 71 | 1014.2 |
| 20260505234557 | 16 | 63 | 1.6 | 11.3 | 0.00 | 0.30 | 0.18 | 70 | 1014.2 |
| 20260505233112 | 16 | 255 | 3.2 | 8.0 | 0.00 | 0.30 | 0.18 | 70 | 1014.3 |
| 20260505231555 | 17 | 290 | 3.2 | 11.3 | 0.00 | 0.30 | 0.18 | 68 | 1014.3 |
| 20260505230054 | 17 | 311 | 1.6 | 12.9 | 0.00 | 0.30 | 0.18 | 66 | 1014.2 |
| 20260505224553 | 17 | 65 | 3.2 | 12.9 | 0.00 | 0.30 | 0.18 | 68 | 1014.2 |
| 20260505223052 | 17 | 144 | 1.6 | 11.3 | 0.00 | 0.30 | 0.18 | 70 | 1014.1 |
| 20260505221556 | 16 | 359 | 3.2 | 8.0 | 0.00 | 0.30 | 0.18 | 71 | 1014.2 |
| 20260505220048 | 16 | 285 | 3.2 | 11.3 | 0.00 | 0.30 | 0.18 | 70 | 1014.5 |
| 20260505214547 | 16 | 65 | 1.6 | 6.4 | 0.00 | 0.30 | 0.18 | 70 | 1014.6 |
| 20260505213048 | 16 | 206 | 1.6 | 8.0 | 0.00 | 0.30 | 0.18 | 70 | 1014.6 |
| 20260505211547 | 16 | 113 | 0.0 | 9.7 | 0.00 | 0.30 | 0.18 | 70 | 1014.7 |
| 20260505210045 | 16 | 102 | 3.2 | 9.7 | 0.00 | 0.30 | 0.18 | 69 | 1014.7 |
| 20260505204544 | 16 | 319 | 1.6 | 8.0 | 0.00 | 0.30 | 0.18 | 70 | 1014.7 |
| 20260505203050 | 16 | 356 | 3.2 | 12.9 | 0.00 | 0.30 | 0.18 | 68 | 1014.7 |
| 20260505201546 | 17 | 167 | 4.8 | 12.9 | 0.00 | 0.30 | 0.18 | 66 | 1014.7 |
| 20260505200041 | 17 | 32 | 3.2 | 11.3 | 0.00 | 0.30 | 0.18 | 68 | 1014.6 |
| 20260505194547 | 16 | 278 | 1.6 | 9.7 | 0.00 | 0.30 | 0.18 | 68 | 1014.9 |
| 20260505193055 | 16 | 76 | 1.6 | 6.4 | 0.00 | 0.30 | 0.18 | 70 | 1014.9 |
| 20260505191540 | 16 | 1 | 0.0 | 4.8 | 0.00 | 0.30 | 0.18 | 69 | 1014.9 |
| 20260505190041 | 15 | 41 | 1.6 | 4.8 | 0.00 | 0.30 | 0.18 | 72 | 1014.7 |
| 20260505184533 | 16 | 7 | 3.2 | 8.0 | 0.00 | 0.30 | 0.18 | 71 | 1014.6 |
| 20260505183032 | 16 | 321 | 3.2 | 8.0 | 0.00 | 0.30 | 0.18 | 71 | 1014.7 |
| 20260505181533 | 16 | 205 | 1.6 | 4.8 | 0.03 | 0.30 | 0.18 | 73 | 1014.8 |
| 20260505180036 | 15 | 117 | 1.6 | 4.8 | 0.03 | 0.30 | 0.18 | 74 | 1014.6 |
| 20260505174523 | 14 | 53 | 0.0 | 4.8 | 0.03 | 0.30 | 0.18 | 76 | 1014.5 |
| 20260505173020 | 13 | 210 | 1.6 | 4.8 | 0.03 | 0.30 | 0.18 | 77 | 1014.4 |
| 20260505171517 | 13 | 359 | 0.0 | 4.8 | 0.00 | 0.28 | 0.15 | 78 | 1014.4 |
| 20260505170017 | 13 | 138 | 0.0 | 4.8 | 0.00 | 0.28 | 0.15 | 79 | 1014.3 |
| 20260505164512 | 13 | 7 | 0.0 | 6.4 | 0.00 | 0.28 | 0.15 | 80 | 1014.4 |
| 20260505163010 | 12 | 84 | 1.6 | 4.8 | 0.00 | 0.28 | 0.15 | 80 | 1014.4 |
| 20260505161510 | 12 | 242 | 0.0 | 4.8 | 0.00 | 0.28 | 0.15 | 80 | 1014.2 |
| 20260505153005 | 12 | 41 | 0.0 | 4.8 | 0.00 | 0.28 | 0.15 | 81 | 1014.0 |
| 20260505151506 | 12 | 1 | 1.6 | 6.4 | 0.00 | 0.28 | 0.15 | 80 | 1013.9 |
| 20260505140104 | 11 | 11 | 1.6 | 4.8 | 0.00 | 0.28 | 0.15 | 81 | 1013.5 |
| 20260505124557 | 11 | 6 | 1.6 | 6.4 | 0.00 | 0.28 | 0.15 | 81 | 1013.2 |
| 20260505123109 | 11 | 336 | 0.0 | 6.4 | 0.00 | 0.28 | 0.15 | 81 | 1013.1 |
| 20260505121551 | 11 | 224 | 1.6 | 6.4 | 0.00 | 0.28 | 0.15 | 81 | 1013.1 |
| 20260505120056 | 11 | 72 | 0.0 | 3.2 | 0.00 | 0.28 | 0.15 | 81 | 1013.0 |
| 20260505114551 | 10 | 217 | 0.0 | 4.8 | 0.00 | 0.28 | 0.15 | 81 | 1013.1 |
| 20260505113051 | 10 | 353 | 0.0 | 3.2 | 0.00 | 0.28 | 0.15 | 81 | 1013.2 |
| 20260505111547 | 10 | 298 | 0.0 | 1.6 | 0.00 | 0.28 | 0.15 | 81 | 1013.3 |